createdAt,value
2018-12-21T00:00:04.639Z,996.71
2018-12-21T00:01:04.590Z,996.64
2018-12-21T00:02:04.571Z,996.75
2018-12-21T00:03:04.586Z,996.65
2018-12-21T00:04:04.590Z,996.62
2018-12-21T00:05:04.650Z,996.67
2018-12-21T00:06:04.586Z,996.55
2018-12-21T00:07:03.076Z,996.58
2018-12-21T00:08:04.570Z,996.49
2018-12-21T00:09:04.586Z,996.53
2018-12-21T00:10:04.575Z,996.50
2018-12-21T00:11:05.570Z,996.54
2018-12-21T00:12:04.566Z,996.58
2018-12-21T00:13:03.022Z,996.57
2018-12-21T00:14:04.593Z,996.59
2018-12-21T00:15:04.600Z,996.51
2018-12-21T00:16:04.572Z,996.47
2018-12-21T00:17:04.574Z,996.47
2018-12-21T00:18:04.571Z,996.40
2018-12-21T00:19:02.861Z,996.41
2018-12-21T00:20:04.575Z,996.45
2018-12-21T00:21:04.595Z,996.49
2018-12-21T00:22:04.605Z,996.49
2018-12-21T00:23:04.622Z,996.44
2018-12-21T00:24:04.576Z,996.44
2018-12-21T00:25:04.578Z,996.44
2018-12-21T00:26:04.567Z,996.40
2018-12-21T00:27:04.565Z,996.32
2018-12-21T00:28:04.588Z,996.35
2018-12-21T00:29:04.595Z,996.30
2018-12-21T00:30:04.626Z,996.31
2018-12-21T00:31:04.585Z,996.28
2018-12-21T00:32:04.589Z,996.32
2018-12-21T00:33:04.583Z,996.25
2018-12-21T00:34:04.565Z,996.24
2018-12-21T00:35:04.570Z,996.17
2018-12-21T00:36:04.576Z,996.14
2018-12-21T00:37:04.654Z,996.18
2018-12-21T00:38:05.681Z,996.12
2018-12-21T00:39:04.600Z,996.17
2018-12-21T00:40:04.574Z,996.16
2018-12-21T00:41:04.575Z,996.13
2018-12-21T00:42:04.562Z,996.12
2018-12-21T00:43:04.571Z,996.18
2018-12-21T00:44:04.561Z,996.15
2018-12-21T00:45:04.594Z,996.11
2018-12-21T00:46:04.295Z,996.06
2018-12-21T00:47:04.061Z,996.08
2018-12-21T00:48:04.062Z,996.09
2018-12-21T00:49:04.086Z,996.04
2018-12-21T00:50:04.083Z,996.01
2018-12-21T00:51:04.076Z,995.98
2018-12-21T00:52:04.088Z,995.96
2018-12-21T00:53:04.075Z,995.94
2018-12-21T00:54:04.055Z,996.01
2018-12-21T00:55:04.060Z,995.98
2018-12-21T00:56:04.075Z,996.00
2018-12-21T00:57:04.068Z,996.02
2018-12-21T00:58:04.080Z,996.07
2018-12-21T00:59:04.067Z,996.05
2018-12-21T01:00:04.083Z,996.01
2018-12-21T01:01:04.114Z,995.95
2018-12-21T01:02:04.081Z,995.95
2018-12-21T01:03:04.069Z,995.90
2018-12-21T01:04:04.077Z,995.79
2018-12-21T01:05:04.063Z,995.86
2018-12-21T01:06:04.088Z,995.88
2018-12-21T01:07:04.059Z,995.91
2018-12-21T01:08:04.126Z,995.93
2018-12-21T01:09:04.068Z,995.89
2018-12-21T01:10:04.079Z,995.82
2018-12-21T01:11:04.089Z,995.88
2018-12-21T01:12:04.086Z,995.90
2018-12-21T01:13:04.062Z,995.92
2018-12-21T01:14:04.121Z,995.95
2018-12-21T01:15:04.078Z,995.95
2018-12-21T01:16:04.047Z,995.91
2018-12-21T01:17:04.047Z,995.87
2018-12-21T01:18:04.083Z,995.88
2018-12-21T01:19:04.090Z,995.91
2018-12-21T01:20:04.062Z,995.94
2018-12-21T01:21:04.060Z,995.85
2018-12-21T01:22:04.087Z,995.89
2018-12-21T01:23:04.069Z,995.84
2018-12-21T01:24:04.071Z,995.81
2018-12-21T01:25:04.050Z,995.81
2018-12-21T01:26:04.051Z,995.78
2018-12-21T01:27:04.065Z,995.82
2018-12-21T01:28:04.080Z,995.81
2018-12-21T01:29:04.069Z,995.69
2018-12-21T01:30:04.070Z,995.85
2018-12-21T01:31:04.076Z,995.78
2018-12-21T01:32:04.068Z,995.82
2018-12-21T01:33:04.080Z,995.85
2018-12-21T01:34:04.077Z,995.90
2018-12-21T01:35:03.588Z,995.88
2018-12-21T01:36:03.589Z,995.85
2018-12-21T01:37:03.562Z,995.82
2018-12-21T01:38:03.566Z,995.84
2018-12-21T01:39:03.590Z,995.88
2018-12-21T01:40:03.572Z,995.83
2018-12-21T01:41:03.596Z,995.82
2018-12-21T01:42:03.581Z,995.81
2018-12-21T01:43:03.580Z,995.75
2018-12-21T01:44:03.583Z,995.80
2018-12-21T01:45:03.581Z,995.77
2018-12-21T01:46:03.581Z,995.86
2018-12-21T01:47:03.586Z,995.78
2018-12-21T01:48:03.577Z,995.74
2018-12-21T01:49:03.580Z,995.78
2018-12-21T01:50:03.586Z,995.68
2018-12-21T01:51:03.578Z,995.65
2018-12-21T01:52:03.574Z,995.60
2018-12-21T01:53:03.603Z,995.54
2018-12-21T01:54:03.581Z,995.60
2018-12-21T01:55:03.593Z,995.56
2018-12-21T01:56:03.571Z,995.55
2018-12-21T01:57:03.568Z,995.56
2018-12-21T01:58:03.619Z,995.51
2018-12-21T01:59:03.570Z,995.54
2018-12-21T02:00:03.590Z,995.54
2018-12-21T02:01:03.590Z,995.54
2018-12-21T02:02:03.576Z,995.54
2018-12-21T02:03:03.574Z,995.53
2018-12-21T02:04:03.577Z,995.52
2018-12-21T02:05:03.572Z,995.50
2018-12-21T02:06:01.770Z,995.47
2018-12-21T02:07:34.611Z,995.54
2018-12-21T02:08:36.454Z,995.48
2018-12-21T02:09:36.400Z,995.48
2018-12-21T02:10:36.403Z,995.41
2018-12-21T02:11:36.394Z,995.43
2018-12-21T02:12:36.405Z,995.44
2018-12-21T02:13:36.383Z,995.41
2018-12-21T02:14:36.391Z,995.40
2018-12-21T02:15:36.376Z,995.34
2018-12-21T02:16:36.377Z,995.34
2018-12-21T02:17:37.395Z,995.29
2018-12-21T02:18:36.388Z,995.27
2018-12-21T02:19:36.389Z,995.24
2018-12-21T02:20:36.362Z,995.28
2018-12-21T02:21:36.396Z,995.19
2018-12-21T02:22:36.422Z,995.24
2018-12-21T02:23:36.391Z,995.11
2018-12-21T02:24:36.378Z,995.10
2018-12-21T02:25:36.383Z,995.13
2018-12-21T02:26:36.380Z,995.10
2018-12-21T02:27:35.429Z,995.08
2018-12-21T02:28:35.882Z,994.98
2018-12-21T02:29:34.923Z,995.01
2018-12-21T02:30:35.885Z,994.96
2018-12-21T02:31:35.906Z,995.00
2018-12-21T02:32:35.878Z,994.91
2018-12-21T02:33:35.917Z,994.83
2018-12-21T02:34:35.895Z,994.78
2018-12-21T02:35:34.316Z,994.84
2018-12-21T02:36:35.880Z,994.81
2018-12-21T02:37:35.981Z,994.85
2018-12-21T02:38:35.902Z,994.79
2018-12-21T02:39:35.899Z,994.72
2018-12-21T02:40:35.876Z,994.79
2018-12-21T02:41:34.240Z,994.75
2018-12-21T02:42:35.930Z,994.72
2018-12-21T02:43:35.892Z,994.77
2018-12-21T02:44:35.896Z,994.75
2018-12-21T02:45:35.868Z,994.67
2018-12-21T02:46:35.903Z,994.55
2018-12-21T02:47:34.175Z,994.60
2018-12-21T02:48:35.902Z,994.56
2018-12-21T02:49:35.879Z,994.66
2018-12-21T02:50:35.873Z,994.63
2018-12-21T02:51:35.918Z,994.66
2018-12-21T02:52:35.907Z,994.66
2018-12-21T02:53:35.949Z,994.68
2018-12-21T02:54:35.896Z,994.69
2018-12-21T02:55:35.893Z,994.71
2018-12-21T02:56:35.895Z,994.74
2018-12-21T02:57:35.902Z,994.77
2018-12-21T02:58:35.903Z,994.75
2018-12-21T02:59:35.915Z,994.74
2018-12-21T03:00:35.876Z,994.71
2018-12-21T03:01:36.016Z,994.68
2018-12-21T03:02:35.902Z,994.69
2018-12-21T03:03:35.929Z,994.67
2018-12-21T03:04:35.895Z,994.72
2018-12-21T03:05:35.893Z,994.60
2018-12-21T03:06:35.901Z,994.61
2018-12-21T03:07:35.889Z,994.60
2018-12-21T03:08:35.908Z,994.60
2018-12-21T03:09:35.890Z,994.56
2018-12-21T03:10:35.882Z,994.52
2018-12-21T03:11:35.880Z,994.53
2018-12-21T03:12:35.917Z,994.49
2018-12-21T03:13:35.888Z,994.47
2018-12-21T03:14:35.875Z,994.44
2018-12-21T03:15:41.510Z,994.42
2018-12-21T03:16:35.469Z,994.41
2018-12-21T03:17:35.435Z,994.44
2018-12-21T03:18:35.423Z,994.41
2018-12-21T03:19:35.433Z,994.47
2018-12-21T03:20:35.410Z,994.39
2018-12-21T03:21:35.438Z,994.34
2018-12-21T03:22:35.413Z,994.33
2018-12-21T03:23:35.413Z,994.33
2018-12-21T03:24:35.438Z,994.30
2018-12-21T03:25:35.436Z,994.28
2018-12-21T03:26:35.421Z,994.27
2018-12-21T03:27:35.439Z,994.29
2018-12-21T03:28:35.433Z,994.22
2018-12-21T03:29:41.361Z,994.15
2018-12-21T03:30:42.361Z,994.14
2018-12-21T03:31:42.357Z,994.08
2018-12-21T03:33:44.044Z,993.94
2018-12-21T03:34:45.675Z,994.01
2018-12-21T03:35:45.652Z,993.97
2018-12-21T03:36:52.513Z,993.92
2018-12-21T03:38:54.251Z,993.85
2018-12-21T03:41:03.461Z,993.82
2018-12-21T03:43:12.712Z,993.70
2018-12-21T03:44:14.303Z,993.70
2018-12-21T03:45:15.297Z,993.66
2018-12-21T03:46:14.323Z,993.57
2018-12-21T03:47:14.311Z,993.51
2018-12-21T03:48:14.300Z,993.60
2018-12-21T03:49:20.205Z,993.56
2018-12-21T03:50:14.533Z,993.57
2018-12-21T03:51:14.451Z,993.52
2018-12-21T03:52:24.026Z,993.45
2018-12-21T03:53:15.373Z,993.51
2018-12-21T03:54:14.355Z,993.51
2018-12-21T03:55:14.367Z,993.52
2018-12-21T03:56:14.342Z,993.47
2018-12-21T03:57:14.405Z,993.45
2018-12-21T03:58:14.339Z,993.44
2018-12-21T03:59:14.361Z,993.41
2018-12-21T04:00:14.343Z,993.33
2018-12-21T04:01:19.990Z,993.30
2018-12-21T04:02:21.538Z,993.29
2018-12-21T04:03:14.002Z,993.29
2018-12-21T04:04:13.954Z,993.21
2018-12-21T04:05:13.917Z,993.21
2018-12-21T04:06:19.975Z,993.25
2018-12-21T04:07:14.066Z,993.23
2018-12-21T04:08:13.973Z,993.19
2018-12-21T04:09:13.959Z,993.14
2018-12-21T04:10:13.987Z,993.16
2018-12-21T04:11:13.963Z,993.15
2018-12-21T04:12:22.062Z,992.96
2018-12-21T04:13:14.084Z,993.03
2018-12-21T04:14:19.913Z,992.98
2018-12-21T04:15:19.941Z,993.01
2018-12-21T04:16:21.767Z,992.97
2018-12-21T04:17:23.261Z,992.98
2018-12-21T04:19:22.521Z,992.97
2018-12-21T04:21:31.718Z,992.91
2018-12-21T04:22:34.200Z,992.87
2018-12-21T04:23:33.386Z,992.88
2018-12-21T04:24:33.408Z,992.80
2018-12-21T04:25:33.377Z,992.84
2018-12-21T04:26:33.396Z,992.79
2018-12-21T04:27:39.274Z,992.77
2018-12-21T04:28:39.199Z,992.75
2018-12-21T04:29:39.197Z,992.70
2018-12-21T04:30:33.578Z,992.75
2018-12-21T04:31:33.506Z,992.70
2018-12-21T04:32:39.212Z,992.70
2018-12-21T04:33:33.651Z,992.64
2018-12-21T04:34:31.587Z,992.67
2018-12-21T04:36:41.886Z,992.69
2018-12-21T04:37:43.519Z,992.72
2018-12-21T04:38:49.380Z,992.73
2018-12-21T04:39:50.434Z,992.71
2018-12-21T04:40:49.300Z,992.67
2018-12-21T04:41:50.686Z,992.63
2018-12-21T04:42:43.621Z,992.61
2018-12-21T04:44:52.022Z,992.59
2018-12-21T04:47:02.336Z,992.53
2018-12-21T04:48:03.928Z,992.47
2018-12-21T04:49:03.904Z,992.32
2018-12-21T04:50:03.914Z,992.38
2018-12-21T04:51:03.899Z,992.45
2018-12-21T04:52:03.899Z,992.35
2018-12-21T04:53:03.918Z,992.41
2018-12-21T04:54:03.903Z,992.33
2018-12-21T04:55:03.892Z,992.33
2018-12-21T04:56:03.887Z,992.30
2018-12-21T04:57:03.876Z,992.31
2018-12-21T04:58:09.666Z,992.28
2018-12-21T04:59:04.130Z,992.33
2018-12-21T05:00:03.933Z,992.30
2018-12-21T05:01:03.975Z,992.25
2018-12-21T05:02:03.922Z,992.30
2018-12-21T05:03:03.910Z,992.20
2018-12-21T05:04:03.941Z,992.23
2018-12-21T05:05:09.592Z,992.18
2018-12-21T05:06:11.088Z,992.04
2018-12-21T05:07:12.491Z,992.14
2018-12-21T05:08:03.566Z,992.13
2018-12-21T05:09:09.538Z,992.10
2018-12-21T05:10:03.669Z,992.14
2018-12-21T05:11:10.673Z,992.07
2018-12-21T05:12:03.671Z,992.07
2018-12-21T05:13:03.625Z,992.01
2018-12-21T05:14:03.619Z,992.05
2018-12-21T05:15:03.635Z,991.98
2018-12-21T05:16:03.617Z,991.97
2018-12-21T05:17:01.875Z,991.93
2018-12-21T05:18:03.623Z,991.95
2018-12-21T05:19:03.787Z,991.87
2018-12-21T05:20:03.615Z,991.83
2018-12-21T05:21:03.627Z,991.88
2018-12-21T05:22:03.611Z,991.86
2018-12-21T05:23:01.830Z,991.78
2018-12-21T05:24:03.610Z,991.59
2018-12-21T05:25:03.645Z,991.68
2018-12-21T05:26:03.615Z,991.65
2018-12-21T05:27:03.614Z,991.64
2018-12-21T05:28:03.608Z,991.62
2018-12-21T05:29:02.630Z,991.65
2018-12-21T05:30:03.619Z,991.57
2018-12-21T05:31:03.635Z,991.64
2018-12-21T05:32:03.613Z,991.62
2018-12-21T05:33:03.613Z,991.60
2018-12-21T05:34:03.610Z,991.55
2018-12-21T05:35:03.615Z,991.46
2018-12-21T05:36:03.615Z,991.51
2018-12-21T05:37:03.608Z,991.45
2018-12-21T05:38:03.649Z,991.42
2018-12-21T05:39:03.626Z,991.47
2018-12-21T05:40:03.718Z,991.43
2018-12-21T05:41:03.618Z,991.36
2018-12-21T05:42:03.640Z,991.32
2018-12-21T05:43:03.137Z,991.34
2018-12-21T05:44:03.154Z,991.27
2018-12-21T05:45:03.118Z,991.28
2018-12-21T05:46:10.715Z,991.28
2018-12-21T05:47:03.234Z,991.35
2018-12-21T05:48:09.234Z,991.35
2018-12-21T05:49:03.261Z,991.34
2018-12-21T05:50:03.214Z,991.30
2018-12-21T05:51:03.191Z,991.25
2018-12-21T05:52:03.223Z,991.22
2018-12-21T05:53:03.178Z,991.20
2018-12-21T05:54:03.186Z,991.11
2018-12-21T05:55:03.202Z,991.14
2018-12-21T05:56:03.185Z,991.02
2018-12-21T05:57:03.195Z,991.06
2018-12-21T05:58:03.187Z,990.98
2018-12-21T05:59:03.219Z,990.99
2018-12-21T06:00:03.216Z,991.01
2018-12-21T06:01:03.182Z,991.01
2018-12-21T06:02:05.361Z,990.97
2018-12-21T06:03:03.207Z,990.94
2018-12-21T06:04:03.224Z,990.93
2018-12-21T06:05:03.199Z,990.95
2018-12-21T06:06:03.178Z,990.80
2018-12-21T06:07:03.205Z,990.96
2018-12-21T06:08:03.174Z,990.89
2018-12-21T06:09:03.206Z,990.90
2018-12-21T06:10:10.341Z,990.88
2018-12-21T06:11:03.257Z,990.88
2018-12-21T06:12:03.237Z,990.79
2018-12-21T06:13:03.259Z,990.81
2018-12-21T06:14:03.245Z,990.72
2018-12-21T06:15:03.247Z,990.70
2018-12-21T06:16:03.211Z,990.67
2018-12-21T06:17:03.239Z,990.63
2018-12-21T06:18:08.895Z,990.66
2018-12-21T06:19:02.822Z,990.56
2018-12-21T06:20:02.853Z,990.57
2018-12-21T06:21:03.440Z,990.55
2018-12-21T06:22:02.762Z,990.48
2018-12-21T06:23:09.417Z,990.50
2018-12-21T06:24:04.800Z,990.48
2018-12-21T06:25:02.781Z,990.40
2018-12-21T06:26:03.911Z,990.33
2018-12-21T06:27:02.768Z,990.26
2018-12-21T06:28:02.811Z,990.30
2018-12-21T06:29:02.808Z,990.29
2018-12-21T06:30:02.779Z,990.20
2018-12-21T06:31:02.753Z,990.12
2018-12-21T06:32:02.846Z,990.07
2018-12-21T06:33:02.779Z,990.06
2018-12-21T06:34:02.773Z,990.12
2018-12-21T06:35:02.780Z,990.11
2018-12-21T06:36:02.767Z,990.16
2018-12-21T06:37:03.918Z,990.17
2018-12-21T06:38:02.768Z,990.15
2018-12-21T06:39:02.762Z,990.13
2018-12-21T06:40:02.763Z,989.94
2018-12-21T06:41:02.771Z,989.99
2018-12-21T06:42:02.780Z,989.91
2018-12-21T06:43:02.767Z,989.89
2018-12-21T06:44:02.786Z,989.88
2018-12-21T06:45:02.797Z,989.86
2018-12-21T06:46:02.798Z,989.82
2018-12-21T06:47:02.791Z,989.73
2018-12-21T06:48:08.484Z,989.67
2018-12-21T06:49:09.970Z,989.75
2018-12-21T06:50:08.583Z,989.69
2018-12-21T06:52:11.123Z,989.76
2018-12-21T06:54:20.426Z,989.74
2018-12-21T06:56:30.978Z,989.66
2018-12-21T06:58:41.160Z,989.54
2018-12-21T06:59:48.663Z,989.61
2018-12-21T07:00:48.746Z,989.60
2018-12-21T07:01:43.007Z,989.60
2018-12-21T07:02:42.936Z,989.56
2018-12-21T07:03:42.968Z,989.51
2018-12-21T07:04:48.721Z,989.46
2018-12-21T07:05:43.005Z,989.38
2018-12-21T07:06:42.995Z,989.40
2018-12-21T07:07:42.928Z,989.35
2018-12-21T07:08:51.092Z,989.34
2018-12-21T07:09:42.983Z,989.37
2018-12-21T07:10:43.055Z,989.34
2018-12-21T07:11:42.023Z,989.26
2018-12-21T07:12:42.558Z,989.23
2018-12-21T07:13:42.475Z,989.22
2018-12-21T07:14:42.448Z,989.19
2018-12-21T07:15:42.485Z,989.22
2018-12-21T07:16:48.674Z,989.20
2018-12-21T07:17:48.607Z,989.23
2018-12-21T07:18:49.727Z,989.31
2018-12-21T07:19:42.626Z,989.32
2018-12-21T07:20:48.623Z,989.31
2018-12-21T07:21:48.492Z,989.26
2018-12-21T07:22:48.500Z,989.16
2018-12-21T07:23:50.901Z,989.06
2018-12-21T07:24:48.473Z,988.97
2018-12-21T07:25:50.402Z,988.97
2018-12-21T07:27:51.135Z,988.94
2018-12-21T07:30:00.587Z,988.87
2018-12-21T07:32:09.617Z,988.89
2018-12-21T07:34:18.878Z,988.80
2018-12-21T07:36:28.085Z,988.72
2018-12-21T07:37:29.680Z,988.70
2018-12-21T07:38:36.820Z,988.72
2018-12-21T07:39:35.629Z,988.66
2018-12-21T07:40:35.609Z,988.66
2018-12-21T07:41:35.576Z,988.64
2018-12-21T07:42:35.572Z,988.65
2018-12-21T07:44:38.273Z,988.57
2018-12-21T07:46:47.488Z,988.52
2018-12-21T07:48:56.698Z,988.46
2018-12-21T07:49:58.366Z,988.48
2018-12-21T07:51:04.271Z,988.43
2018-12-21T07:52:04.254Z,988.43
2018-12-21T07:53:05.234Z,988.40
2018-12-21T07:54:04.216Z,988.38
2018-12-21T07:55:04.199Z,988.27
2018-12-21T07:56:04.179Z,988.24
2018-12-21T07:58:06.802Z,988.23
2018-12-21T08:00:16.028Z,988.19
2018-12-21T08:02:25.262Z,988.09
2018-12-21T08:04:34.682Z,988.04
2018-12-21T08:06:43.780Z,987.95
2018-12-21T08:08:53.108Z,987.86
2018-12-21T08:11:02.279Z,987.85
2018-12-21T08:12:03.944Z,987.82
2018-12-21T08:13:11.166Z,987.71
2018-12-21T08:14:10.849Z,987.70
2018-12-21T08:16:12.636Z,987.63
2018-12-21T08:18:21.671Z,987.57
2018-12-21T08:20:32.114Z,987.50
2018-12-21T08:22:43.472Z,987.46
2018-12-21T08:24:53.404Z,987.38
2018-12-21T08:25:55.058Z,987.34
2018-12-21T08:26:55.099Z,987.30
2018-12-21T08:27:55.018Z,987.31
2018-12-21T08:28:55.021Z,987.25
2018-12-21T08:29:55.007Z,987.22
2018-12-21T08:30:55.032Z,987.14
2018-12-21T08:31:55.017Z,987.10
2018-12-21T08:32:55.023Z,987.10
2018-12-21T08:33:55.014Z,987.09
2018-12-21T08:34:55.035Z,987.06
2018-12-21T08:35:55.008Z,987.05
2018-12-21T08:36:55.004Z,986.97
2018-12-21T08:37:55.116Z,986.92
2018-12-21T08:38:55.008Z,986.96
2018-12-21T08:40:00.798Z,986.83
2018-12-21T08:41:00.818Z,986.86
2018-12-21T08:42:02.280Z,986.80
2018-12-21T08:44:03.460Z,986.76
2018-12-21T08:45:05.178Z,986.71
2018-12-21T08:46:05.089Z,986.68
2018-12-21T08:47:12.197Z,986.65
2018-12-21T08:48:11.970Z,986.61
2018-12-21T08:49:10.914Z,986.56
2018-12-21T08:50:10.969Z,986.67
2018-12-21T08:51:05.293Z,986.67
2018-12-21T08:52:13.344Z,986.60
2018-12-21T08:54:13.544Z,986.54
2018-12-21T08:56:22.817Z,986.55
2018-12-21T08:58:32.027Z,986.47
2018-12-21T08:59:33.689Z,986.46
2018-12-21T09:00:39.577Z,986.43
2018-12-21T09:02:42.312Z,986.47
2018-12-21T09:04:51.474Z,986.50
2018-12-21T09:05:53.146Z,986.41
2018-12-21T09:07:00.235Z,986.40
2018-12-21T09:07:58.986Z,986.34
2018-12-21T09:08:58.966Z,986.23
2018-12-21T09:09:58.912Z,986.13
2018-12-21T09:10:53.275Z,986.21
2018-12-21T09:12:00.343Z,986.25
2018-12-21T09:12:58.897Z,986.29
2018-12-21T09:13:58.879Z,986.30
2018-12-21T09:14:58.877Z,986.11
2018-12-21T09:15:52.865Z,986.16
2018-12-21T09:16:52.879Z,986.18
2018-12-21T09:17:52.924Z,986.17
2018-12-21T09:18:52.873Z,986.11
2018-12-21T09:19:58.844Z,986.07
2018-12-21T09:20:53.005Z,986.07
2018-12-21T09:22:00.032Z,986.03
2018-12-21T09:22:58.803Z,986.00
2018-12-21T09:24:01.233Z,985.99
2018-12-21T09:24:53.217Z,985.94
2018-12-21T09:25:53.075Z,985.86
2018-12-21T09:27:01.147Z,985.89
2018-12-21T09:27:58.750Z,985.84
2018-12-21T09:30:01.393Z,985.83
2018-12-21T09:32:10.628Z,985.78
2018-12-21T09:34:19.876Z,985.72
2018-12-21T09:36:29.092Z,985.66
2018-12-21T09:38:38.458Z,985.74
2018-12-21T09:40:47.525Z,985.67
2018-12-21T09:42:56.755Z,985.57
2018-12-21T09:45:05.992Z,985.52
2018-12-21T09:47:16.217Z,985.39
2018-12-21T09:49:25.403Z,985.42
2018-12-21T09:51:34.636Z,985.42
2018-12-21T09:53:43.819Z,985.20
2018-12-21T09:55:53.110Z,985.18
2018-12-21T09:56:54.761Z,985.16
2018-12-21T09:58:00.643Z,985.14
2018-12-21T09:59:00.675Z,985.12
2018-12-21T10:00:00.594Z,985.03
2018-12-21T10:01:01.997Z,984.91
2018-12-21T10:01:54.976Z,984.81
2018-12-21T10:03:00.633Z,984.94
2018-12-21T10:04:00.583Z,984.74
2018-12-21T10:05:00.554Z,984.88
2018-12-21T10:05:54.670Z,984.85
2018-12-21T10:06:54.509Z,984.79
2018-12-21T10:07:54.593Z,984.75
2018-12-21T10:08:54.546Z,984.61
2018-12-21T10:10:00.780Z,984.62
2018-12-21T10:11:02.749Z,984.71
2018-12-21T10:12:00.529Z,984.68
2018-12-21T10:13:00.434Z,984.66
2018-12-21T10:14:00.435Z,984.59
2018-12-21T10:15:00.402Z,984.58
2018-12-21T10:15:54.745Z,984.52
2018-12-21T10:16:52.809Z,984.47
2018-12-21T10:17:54.724Z,984.52
2018-12-21T10:18:54.738Z,984.49
2018-12-21T10:19:54.723Z,984.44
2018-12-21T10:20:54.768Z,984.46
2018-12-21T10:21:54.766Z,984.37
2018-12-21T10:22:52.728Z,984.35
2018-12-21T10:23:54.712Z,984.30
2018-12-21T10:24:54.343Z,984.17
2018-12-21T10:25:54.227Z,984.14
2018-12-21T10:26:54.225Z,984.21
2018-12-21T10:27:54.244Z,984.08
2018-12-21T10:28:54.226Z,984.08
2018-12-21T10:29:54.217Z,984.00
2018-12-21T10:30:54.221Z,984.01
2018-12-21T10:31:54.260Z,984.00
2018-12-21T10:32:54.201Z,983.92
2018-12-21T10:33:54.208Z,983.94
2018-12-21T10:34:54.218Z,983.87
2018-12-21T10:35:54.232Z,983.84
2018-12-21T10:36:54.229Z,983.74
2018-12-21T10:37:54.238Z,983.74
2018-12-21T10:38:54.223Z,983.67
2018-12-21T10:39:54.249Z,983.69
2018-12-21T10:40:54.236Z,983.66
2018-12-21T10:41:54.274Z,983.64
2018-12-21T10:42:54.224Z,983.64
2018-12-21T10:43:54.206Z,983.63
2018-12-21T10:44:54.242Z,983.62
2018-12-21T10:45:54.236Z,983.61
2018-12-21T10:46:54.233Z,983.56
2018-12-21T10:47:54.215Z,983.53
2018-12-21T10:48:54.237Z,983.47
2018-12-21T10:49:54.271Z,983.58
2018-12-21T10:50:54.239Z,983.53
2018-12-21T10:51:54.228Z,983.47
2018-12-21T10:52:54.224Z,983.44
2018-12-21T10:53:54.258Z,983.38
2018-12-21T10:54:54.244Z,983.31
2018-12-21T10:55:54.257Z,983.38
2018-12-21T10:56:54.223Z,983.41
2018-12-21T10:57:54.204Z,983.29
2018-12-21T10:58:54.228Z,983.23
2018-12-21T10:59:54.235Z,983.27
2018-12-21T11:00:54.242Z,983.33
2018-12-21T11:01:54.233Z,983.25
2018-12-21T11:02:54.220Z,983.30
2018-12-21T11:03:54.250Z,983.30
2018-12-21T11:04:54.248Z,983.14
2018-12-21T11:05:54.254Z,983.18
2018-12-21T11:06:54.239Z,983.12
2018-12-21T11:07:54.205Z,983.17
2018-12-21T11:08:54.234Z,983.15
2018-12-21T11:09:54.232Z,983.00
2018-12-21T11:10:54.212Z,983.14
2018-12-21T11:11:53.720Z,983.22
2018-12-21T11:12:53.786Z,983.08
2018-12-21T11:13:53.714Z,983.04
2018-12-21T11:14:53.728Z,983.05
2018-12-21T11:15:52.211Z,983.00
2018-12-21T11:16:53.745Z,982.99
2018-12-21T11:17:53.715Z,982.98
2018-12-21T11:18:53.792Z,982.99
2018-12-21T11:19:53.717Z,982.86
2018-12-21T11:20:53.720Z,982.93
2018-12-21T11:21:53.790Z,982.95
2018-12-21T11:22:53.719Z,982.96
2018-12-21T11:23:53.711Z,982.95
2018-12-21T11:24:53.756Z,982.82
2018-12-21T11:25:53.728Z,982.90
2018-12-21T11:26:53.723Z,982.87
2018-12-21T11:27:53.772Z,982.82
2018-12-21T11:28:53.726Z,982.91
2018-12-21T11:29:53.778Z,982.77
2018-12-21T11:30:53.819Z,982.77
2018-12-21T11:31:53.755Z,982.77
2018-12-21T11:32:53.776Z,982.71
2018-12-21T11:33:53.738Z,982.78
2018-12-21T11:34:54.937Z,982.70
2018-12-21T11:35:53.728Z,982.70
2018-12-21T11:36:59.634Z,982.69
2018-12-21T11:37:53.864Z,982.74
2018-12-21T11:38:53.750Z,982.74
2018-12-21T11:39:53.841Z,982.70
2018-12-21T11:40:53.769Z,982.75
2018-12-21T11:41:53.753Z,982.63
2018-12-21T11:42:53.775Z,982.69
2018-12-21T11:44:01.846Z,982.62
2018-12-21T11:44:59.467Z,982.64
2018-12-21T11:45:53.853Z,982.59
2018-12-21T11:46:53.824Z,982.55
2018-12-21T11:47:52.845Z,982.64
2018-12-21T11:48:53.818Z,982.45
2018-12-21T11:49:53.340Z,982.52
2018-12-21T11:50:53.362Z,982.51
2018-12-21T11:51:53.364Z,982.50
2018-12-21T11:52:53.329Z,982.48
2018-12-21T11:53:53.342Z,982.47
2018-12-21T11:54:53.337Z,982.53
2018-12-21T11:55:53.333Z,982.45
2018-12-21T11:56:53.342Z,982.44
2018-12-21T11:57:53.345Z,982.35
2018-12-21T11:58:53.337Z,982.36
2018-12-21T11:59:53.346Z,982.42
2018-12-21T12:00:53.400Z,982.42
2018-12-21T12:01:53.373Z,982.38
2018-12-21T12:02:53.330Z,982.40
2018-12-21T12:03:53.403Z,982.41
2018-12-21T12:04:53.329Z,982.35
2018-12-21T12:05:53.325Z,982.46
2018-12-21T12:06:53.334Z,982.38
2018-12-21T12:07:53.390Z,982.35
2018-12-21T12:08:52.357Z,982.28
2018-12-21T12:09:53.310Z,982.23
2018-12-21T12:10:53.318Z,982.30
2018-12-21T12:11:53.326Z,982.32
2018-12-21T12:12:53.326Z,982.20
2018-12-21T12:13:53.368Z,982.19
2018-12-21T12:14:51.545Z,982.09
2018-12-21T12:15:53.337Z,982.09
2018-12-21T12:16:53.323Z,982.17
2018-12-21T12:17:53.326Z,982.04
2018-12-21T12:18:53.327Z,982.07
2018-12-21T12:19:53.343Z,981.94
2018-12-21T12:20:53.336Z,982.00
2018-12-21T12:21:53.308Z,982.09
2018-12-21T12:22:53.335Z,982.29
2018-12-21T12:23:53.484Z,982.27
2018-12-21T12:24:59.165Z,982.28
2018-12-21T12:25:53.534Z,982.13
2018-12-21T12:26:53.444Z,982.05
2018-12-21T12:27:53.391Z,982.14
2018-12-21T12:28:53.389Z,981.92
2018-12-21T12:29:53.374Z,982.16
2018-12-21T12:30:52.384Z,982.05
2018-12-21T12:31:52.862Z,982.17
2018-12-21T12:32:52.853Z,982.21
2018-12-21T12:33:52.872Z,982.24
2018-12-21T12:34:52.907Z,982.21
2018-12-21T12:35:52.920Z,982.22
2018-12-21T12:36:52.879Z,982.23
2018-12-21T12:37:52.875Z,982.18
2018-12-21T12:38:52.897Z,982.25
2018-12-21T12:39:52.887Z,982.18
2018-12-21T12:40:52.900Z,982.11
2018-12-21T12:41:52.873Z,982.14
2018-12-21T12:42:52.897Z,982.19
2018-12-21T12:43:52.865Z,982.09
2018-12-21T12:44:52.865Z,982.12
2018-12-21T12:45:52.863Z,982.11
2018-12-21T12:46:52.961Z,982.07
2018-12-21T12:47:52.893Z,982.06
2018-12-21T12:48:52.865Z,982.05
2018-12-21T12:49:52.867Z,982.11
2018-12-21T12:50:52.880Z,982.02
2018-12-21T12:51:52.907Z,982.10
2018-12-21T12:52:52.879Z,982.16
2018-12-21T12:53:52.910Z,982.05
2018-12-21T12:55:02.298Z,982.08
2018-12-21T12:55:53.867Z,981.93
2018-12-21T12:56:52.867Z,982.14
2018-12-21T12:57:52.885Z,982.04
2018-12-21T12:58:52.864Z,982.07
2018-12-21T12:59:52.890Z,982.19
2018-12-21T13:00:52.872Z,982.07
2018-12-21T13:01:58.646Z,982.09
2018-12-21T13:02:52.975Z,982.08
2018-12-21T13:03:52.939Z,982.12
2018-12-21T13:04:52.916Z,982.10
2018-12-21T13:05:52.973Z,982.08
2018-12-21T13:06:52.921Z,982.07
2018-12-21T13:07:51.026Z,982.12
2018-12-21T13:08:52.971Z,982.00
2018-12-21T13:09:52.924Z,982.18
2018-12-21T13:10:58.596Z,982.08
2018-12-21T13:11:52.525Z,981.95
2018-12-21T13:12:52.471Z,982.12
2018-12-21T13:13:50.936Z,982.08
2018-12-21T13:14:52.454Z,982.15
2018-12-21T13:15:52.457Z,982.16
2018-12-21T13:16:52.457Z,982.18
2018-12-21T13:17:52.664Z,982.06
2018-12-21T13:18:52.477Z,982.22
2018-12-21T13:19:52.475Z,982.30
2018-12-21T13:20:52.470Z,982.06
2018-12-21T13:21:52.583Z,982.16
2018-12-21T13:22:52.483Z,982.21
2018-12-21T13:23:52.472Z,982.18
2018-12-21T13:24:58.590Z,982.09
2018-12-21T13:25:58.487Z,982.15
2018-12-21T13:28:12.992Z,982.14
2018-12-21T13:29:05.408Z,982.16
2018-12-21T13:31:14.659Z,982.18